Kingston, Georgia
Current Conditions -  °F | °C
As of 5:15 AM on Saturday 20 Dec 2014 (Local Time) from KVPC Reporting Station
Light Rain Light Rain  
Wind Chill: 39°   Ceiling: 4600
Heat Index: 39°   Visibility: 6mi
Dew Point: 37°   Wind: 0mph
Humidity: 93%   Direction: NA
Pressure: 30.16"   Gusts: NA
Location:  34.24°N, 84.94°W
Report Text: KVPC 201015Z AUTO 00000KT 6SM -RA BR SCT006 OVC046 04/03 A3016 RMK AO2 RAB02 P0001 T00390028
Loading
Personal Weather Stations






























Interactive Weather Map New forecast layout! Learn more

10-Day Weather Forecast

Advertisements
Track Severe Weather on mobile